createdAt,value
2023-01-19T00:04:18.938Z,100742.00
2023-01-19T00:14:40.224Z,100750.00
2023-01-19T00:25:03.500Z,100777.00
2023-01-19T00:35:25.183Z,100781.00
2023-01-19T00:45:48.160Z,100776.00
2023-01-19T00:56:09.757Z,100793.00
2023-01-19T01:06:32.921Z,100811.00
2023-01-19T01:16:55.063Z,100811.00
2023-01-19T01:27:18.109Z,100802.00
2023-01-19T01:37:40.342Z,100803.00
2023-01-19T01:48:09.770Z,100801.00
2023-01-19T01:58:32.316Z,100817.00
2023-01-19T02:09:17.890Z,100821.00
2023-01-19T02:19:43.595Z,100835.00
2023-01-19T02:30:08.458Z,100832.00
2023-01-19T02:40:30.161Z,100827.00
2023-01-19T02:50:56.014Z,100819.00
2023-01-19T03:01:25.048Z,100821.00
2023-01-19T03:11:52.468Z,100828.00
2023-01-19T03:22:16.548Z,100828.00
2023-01-19T03:32:52.920Z,100830.00
2023-01-19T03:43:17.301Z,100843.00
2023-01-19T03:53:40.313Z,100834.00
2023-01-19T04:04:01.934Z,100845.00
2023-01-19T04:14:25.059Z,100860.00
2023-01-19T04:24:46.643Z,100861.00
2023-01-19T04:35:09.640Z,100863.00
2023-01-19T04:45:31.006Z,100879.00
2023-01-19T04:55:55.899Z,100870.00
2023-01-19T05:06:17.302Z,100865.00
2023-01-19T05:16:40.451Z,100877.00
2023-01-19T05:27:02.146Z,100889.00
2023-01-19T05:37:24.941Z,100887.00
2023-01-19T05:47:46.195Z,100871.00
2023-01-19T05:58:08.829Z,100901.00
2023-01-19T06:08:30.897Z,100911.00
2023-01-19T06:18:54.170Z,100913.00
2023-01-19T06:29:15.713Z,100909.00
2023-01-19T06:39:41.095Z,100909.00
2023-01-19T06:50:03.505Z,100922.00
2023-01-19T07:00:27.261Z,100933.00
2023-01-19T07:11:25.126Z,100934.00
2023-01-19T07:21:32.951Z,100955.00
2023-01-19T07:31:54.975Z,100955.00
2023-01-19T07:42:18.011Z,100955.00
2023-01-19T07:52:41.941Z,100953.00
2023-01-19T08:03:05.748Z,100961.00
2023-01-19T08:13:27.862Z,100954.00
2023-01-19T08:23:54.984Z,100970.00
2023-01-19T08:34:16.790Z,100967.00
2023-01-19T08:44:46.797Z,100970.00
2023-01-19T08:55:19.026Z,100954.00
2023-01-19T09:05:42.364Z,100978.00
2023-01-19T09:16:04.842Z,100967.00
2023-01-19T09:26:28.025Z,100960.00
2023-01-19T09:36:49.489Z,100941.00
2023-01-19T09:47:17.738Z,100935.00
2023-01-19T09:57:39.115Z,100930.00
2023-01-19T10:08:13.668Z,100920.00
2023-01-19T10:18:47.440Z,100895.00
2023-01-19T10:29:19.484Z,100885.00
2023-01-19T10:39:42.993Z,100874.00
2023-01-19T10:50:24.874Z,100875.00
2023-01-19T11:00:46.677Z,100873.00
2023-01-19T11:11:12.268Z,100862.00
2023-01-19T11:21:34.293Z,100844.00
2023-01-19T11:32:11.825Z,100832.00
2023-01-19T11:42:37.097Z,100820.00
2023-01-19T11:53:05.905Z,100838.00
2023-01-19T12:03:31.654Z,100835.00
2023-01-19T12:13:55.013Z,100820.00
2023-01-19T12:24:20.300Z,100828.00
2023-01-19T12:34:44.963Z,100832.00
2023-01-19T12:45:09.757Z,100832.00
2023-01-19T12:55:35.481Z,100847.00
2023-01-19T13:05:57.741Z,100865.00
2023-01-19T13:16:53.835Z,100869.00
2023-01-19T13:27:15.349Z,100882.00
2023-01-19T13:37:41.560Z,100883.00
2023-01-19T13:48:09.423Z,100897.00
2023-01-19T13:58:32.986Z,100898.00
2023-01-19T14:09:18.238Z,100904.00
2023-01-19T14:19:50.764Z,100924.00
2023-01-19T14:30:25.003Z,100923.00
2023-01-19T14:40:48.110Z,100941.00
2023-01-19T14:51:19.732Z,100947.00
2023-01-19T15:01:42.873Z,100952.00
2023-01-19T15:12:04.892Z,100956.00
2023-01-19T15:22:29.839Z,100973.00
2023-01-19T15:32:51.636Z,100974.00
2023-01-19T15:43:14.856Z,100983.00
2023-01-19T15:53:36.516Z,100998.00
2023-01-19T16:04:01.702Z,100986.00
2023-01-19T16:14:23.405Z,100991.00
2023-01-19T16:24:46.297Z,100994.00
2023-01-19T16:35:08.232Z,101003.00
2023-01-19T16:45:31.192Z,101002.00
2023-01-19T16:55:53.899Z,101006.00
2023-01-19T17:06:20.106Z,101012.00
2023-01-19T17:16:42.117Z,101006.00
2023-01-19T17:27:05.336Z,101006.00
2023-01-19T17:37:27.082Z,101017.00
2023-01-19T17:47:51.062Z,101029.00
2023-01-19T17:58:13.211Z,101029.00
2023-01-19T18:08:38.680Z,101047.00
2023-01-19T18:19:01.352Z,101045.00
2023-01-19T18:29:24.076Z,101050.00
2023-01-19T18:39:45.621Z,101046.00
2023-01-19T18:50:09.767Z,101050.00
2023-01-19T19:00:31.675Z,101066.00
2023-01-19T19:10:54.793Z,101090.00
2023-01-19T19:21:17.743Z,101094.00
2023-01-19T19:31:41.011Z,101102.00
2023-01-19T19:42:02.845Z,101112.00
2023-01-19T19:52:27.526Z,101126.00
2023-01-19T20:02:51.556Z,101130.00
2023-01-19T20:13:17.731Z,101126.00
2023-01-19T20:23:39.011Z,101140.00
2023-01-19T20:34:04.690Z,101155.00
2023-01-19T20:44:27.452Z,101159.00
2023-01-19T20:54:52.127Z,101162.00
2023-01-19T21:05:13.968Z,101172.00
2023-01-19T21:15:37.000Z,101172.00
2023-01-19T21:26:00.716Z,101210.00
2023-01-19T21:36:24.752Z,101212.00
2023-01-19T21:46:46.739Z,101224.00
2023-01-19T21:57:09.651Z,101250.00
2023-01-19T22:07:31.581Z,101249.00
2023-01-19T22:17:54.641Z,101253.00
2023-01-19T22:28:16.277Z,101274.00
2023-01-19T22:38:40.154Z,101282.00
2023-01-19T22:49:01.601Z,101276.00
2023-01-19T22:59:24.335Z,101291.00
2023-01-19T23:09:46.118Z,101296.00
2023-01-19T23:20:11.068Z,101304.00
2023-01-19T23:30:32.880Z,101319.00
2023-01-19T23:40:59.208Z,101317.00
2023-01-19T23:51:23.110Z,101317.00
